createdAt,value
2023-03-31T00:01:48.499Z,8.40
2023-03-31T00:04:53.207Z,8.44
2023-03-31T00:08:01.151Z,8.92
2023-03-31T00:11:07.188Z,8.75
2023-03-31T00:14:09.335Z,8.71
2023-03-31T00:17:11.696Z,8.52
2023-03-31T00:20:14.849Z,8.65
2023-03-31T00:23:16.479Z,8.68
2023-03-31T00:26:18.096Z,8.91
2023-03-31T00:29:19.753Z,8.64
2023-03-31T00:32:21.378Z,8.76
2023-03-31T00:35:22.991Z,8.92
2023-03-31T00:38:24.643Z,9.00
2023-03-31T00:41:27.746Z,8.98
2023-03-31T00:44:30.678Z,9.09
2023-03-31T00:47:32.488Z,9.14
2023-03-31T00:50:57.530Z,9.18
2023-03-31T00:54:08.501Z,9.21
2023-03-31T00:57:11.920Z,9.21
2023-03-31T01:00:18.991Z,9.25
2023-03-31T01:03:22.739Z,9.30
2023-03-31T01:06:25.378Z,9.42
2023-03-31T01:09:35.151Z,9.24
2023-03-31T01:12:42.442Z,9.17
2023-03-31T01:15:44.672Z,9.18
2023-03-31T01:18:49.761Z,9.21
2023-03-31T01:22:17.409Z,9.20
2023-03-31T01:25:34.292Z,9.11
2023-03-31T01:28:54.884Z,9.14
2023-03-31T01:32:14.651Z,9.11
2023-03-31T01:35:57.905Z,9.12
2023-03-31T01:39:46.207Z,9.13
2023-03-31T01:42:50.818Z,9.14
2023-03-31T01:46:02.135Z,9.14
2023-03-31T01:49:25.315Z,9.14
2023-03-31T01:52:59.256Z,9.09
2023-03-31T01:56:05.202Z,9.02
2023-03-31T01:59:34.026Z,9.07
2023-03-31T02:02:44.820Z,9.18
2023-03-31T02:05:53.114Z,9.13
2023-03-31T02:08:59.857Z,9.11
2023-03-31T02:12:06.294Z,9.04
2023-03-31T02:15:12.609Z,8.97
2023-03-31T02:18:18.694Z,8.87
2023-03-31T02:21:22.855Z,8.70
2023-03-31T02:24:27.034Z,8.66
2023-03-31T02:27:33.490Z,8.53
2023-03-31T02:31:01.548Z,8.44
2023-03-31T02:34:03.496Z,8.39
2023-03-31T02:37:06.449Z,8.36
2023-03-31T02:40:13.145Z,8.34
2023-03-31T02:43:15.027Z,8.34
2023-03-31T02:46:16.935Z,8.32
2023-03-31T02:49:19.609Z,8.29
2023-03-31T02:52:48.537Z,8.25
2023-03-31T02:55:58.347Z,8.22
2023-03-31T02:59:26.012Z,8.16
2023-03-31T03:03:00.044Z,8.13
2023-03-31T03:06:19.077Z,8.09
2023-03-31T03:09:23.407Z,8.09
2023-03-31T03:12:41.968Z,8.01
2023-03-31T03:15:48.541Z,8.00
2023-03-31T03:19:01.961Z,7.92
2023-03-31T03:22:03.667Z,7.92
2023-03-31T03:25:10.631Z,7.89
2023-03-31T03:28:12.287Z,7.85
2023-03-31T03:31:13.892Z,7.82
2023-03-31T03:34:16.508Z,7.87
2023-03-31T03:37:18.168Z,7.77
2023-03-31T03:40:19.987Z,7.74
2023-03-31T03:43:21.617Z,7.69
2023-03-31T03:46:23.317Z,7.73
2023-03-31T03:49:24.987Z,7.65
2023-03-31T03:52:27.245Z,7.58
2023-03-31T03:55:29.086Z,7.60
2023-03-31T03:58:30.939Z,7.53
2023-03-31T04:01:32.639Z,7.56
2023-03-31T04:04:34.351Z,7.50
2023-03-31T04:07:36.003Z,7.44
2023-03-31T04:10:37.685Z,7.52
2023-03-31T04:13:39.431Z,7.33
2023-03-31T04:16:41.125Z,7.28
2023-03-31T04:19:42.787Z,7.29
2023-03-31T04:22:47.106Z,7.28
2023-03-31T04:25:50.024Z,7.35
2023-03-31T04:28:51.661Z,7.27
2023-03-31T04:31:58.898Z,7.24
2023-03-31T04:35:02.768Z,7.14
2023-03-31T04:38:04.529Z,7.14
2023-03-31T04:41:06.725Z,7.19
2023-03-31T04:44:08.475Z,7.21
2023-03-31T04:47:10.320Z,7.30
2023-03-31T04:50:15.308Z,7.30
2023-03-31T04:53:18.634Z,7.33
2023-03-31T04:56:20.799Z,7.33
2023-03-31T04:59:22.468Z,7.48
2023-03-31T05:02:25.454Z,7.50
2023-03-31T05:05:28.060Z,7.54
2023-03-31T05:08:29.817Z,7.67
2023-03-31T05:11:31.503Z,7.69
2023-03-31T05:14:33.157Z,7.81
2023-03-31T05:17:36.568Z,7.87
2023-03-31T05:20:38.996Z,7.87
2023-03-31T05:23:41.423Z,7.88
2023-03-31T05:26:48.451Z,7.91
2023-03-31T05:29:51.063Z,8.02
2023-03-31T05:32:53.353Z,8.17
2023-03-31T05:35:55.343Z,8.28
2023-03-31T05:38:57.058Z,8.32
2023-03-31T05:42:01.863Z,8.38
2023-03-31T05:45:05.594Z,8.74
2023-03-31T05:48:08.220Z,8.74
2023-03-31T05:51:09.893Z,8.94
2023-03-31T05:54:11.604Z,8.95
2023-03-31T05:57:43.636Z,9.03
2023-03-31T06:00:38.015Z,9.35
2023-03-31T06:03:41.659Z,9.75
2023-03-31T06:06:44.372Z,9.69
2023-03-31T06:09:46.847Z,9.72
2023-03-31T06:12:48.490Z,9.99
2023-03-31T06:15:54.834Z,9.75
2023-03-31T06:18:56.725Z,9.96
2023-03-31T06:21:58.435Z,10.43
2023-03-31T06:25:00.119Z,10.85
2023-03-31T06:28:01.769Z,11.76
2023-03-31T06:31:22.189Z,12.07
2023-03-31T06:34:23.844Z,13.35
2023-03-31T06:37:25.651Z,14.15
2023-03-31T06:40:27.423Z,14.92
2023-03-31T06:43:29.112Z,15.71
2023-03-31T06:46:30.876Z,17.12
2023-03-31T06:49:32.630Z,18.70
2023-03-31T06:52:34.895Z,18.35
2023-03-31T06:55:37.113Z,18.15
2023-03-31T06:58:38.795Z,17.86
2023-03-31T07:01:42.499Z,19.37
2023-03-31T07:04:44.804Z,17.27
2023-03-31T07:07:46.573Z,16.80
2023-03-31T07:10:50.282Z,16.26
2023-03-31T07:13:51.950Z,17.59
2023-03-31T07:16:53.634Z,20.12
2023-03-31T07:19:55.306Z,20.88
2023-03-31T07:22:57.197Z,21.70
2023-03-31T07:26:02.534Z,21.57
2023-03-31T07:29:04.350Z,21.11
2023-03-31T07:32:06.043Z,21.29
2023-03-31T07:35:09.583Z,21.69
2023-03-31T07:38:12.759Z,23.89
2023-03-31T07:41:19.659Z,23.87
2023-03-31T07:44:23.425Z,25.98
2023-03-31T07:47:25.694Z,27.96
2023-03-31T07:50:27.347Z,24.71
2023-03-31T07:53:29.001Z,23.38
2023-03-31T07:56:30.645Z,20.81
2023-03-31T07:59:32.486Z,19.10
2023-03-31T08:02:34.757Z,18.45
2023-03-31T08:05:36.541Z,20.63
2023-03-31T08:08:43.287Z,24.81
2023-03-31T08:11:46.795Z,25.63
2023-03-31T08:14:49.245Z,27.54
2023-03-31T08:17:51.389Z,27.24
2023-03-31T08:20:53.125Z,27.32
2023-03-31T08:23:56.186Z,28.06
2023-03-31T08:26:57.825Z,31.55
2023-03-31T08:30:04.637Z,30.13
2023-03-31T08:33:07.835Z,30.71
2023-03-31T08:36:11.052Z,28.32
2023-03-31T08:39:13.234Z,28.07
2023-03-31T08:42:25.721Z,29.75
2023-03-31T08:45:34.460Z,27.92
2023-03-31T08:48:49.143Z,28.76
2023-03-31T08:51:54.846Z,29.25
2023-03-31T08:54:59.767Z,27.22
2023-03-31T08:58:13.747Z,28.18
2023-03-31T09:01:21.414Z,31.16
2023-03-31T09:04:51.795Z,29.21
2023-03-31T09:08:07.881Z,29.53
2023-03-31T09:11:32.295Z,31.34
2023-03-31T09:14:50.451Z,30.93
2023-03-31T09:17:55.718Z,30.55
2023-03-31T09:21:21.261Z,29.14
2023-03-31T09:24:32.729Z,30.92
2023-03-31T09:27:37.492Z,30.06
2023-03-31T09:30:41.818Z,32.98
2023-03-31T09:33:47.869Z,32.20
2023-03-31T09:36:49.556Z,31.03
2023-03-31T09:39:51.530Z,30.71
2023-03-31T09:43:10.965Z,30.90
2023-03-31T09:46:23.451Z,31.96
2023-03-31T09:49:28.786Z,30.02
2023-03-31T09:52:33.529Z,30.35
2023-03-31T09:55:45.627Z,32.18
2023-03-31T09:58:48.062Z,32.84
2023-03-31T10:01:52.803Z,27.31
2023-03-31T10:04:54.889Z,25.20
2023-03-31T10:08:17.650Z,23.77
2023-03-31T10:11:19.356Z,23.87
2023-03-31T10:14:27.528Z,22.67
2023-03-31T10:17:29.535Z,21.43
2023-03-31T10:20:37.087Z,20.76
2023-03-31T10:23:38.819Z,19.71
2023-03-31T10:26:41.243Z,20.55
2023-03-31T10:29:43.088Z,19.64
2023-03-31T10:32:46.269Z,19.09
2023-03-31T10:35:51.212Z,18.84
2023-03-31T10:38:54.098Z,19.30
2023-03-31T10:41:55.966Z,19.22
2023-03-31T10:45:26.286Z,19.64
2023-03-31T10:48:40.811Z,19.36
2023-03-31T10:51:56.401Z,18.84
2023-03-31T10:55:01.749Z,19.15
2023-03-31T10:58:26.787Z,18.62
2023-03-31T11:01:54.486Z,19.57
2023-03-31T11:05:05.730Z,20.09
2023-03-31T11:08:21.499Z,19.55
2023-03-31T11:11:53.663Z,19.35
2023-03-31T11:15:13.863Z,19.36
2023-03-31T11:18:43.318Z,19.45
2023-03-31T11:21:50.908Z,19.44
2023-03-31T11:25:15.978Z,19.41
2023-03-31T11:28:30.355Z,19.58
2023-03-31T11:31:34.003Z,19.30
2023-03-31T11:34:50.699Z,19.34
2023-03-31T11:38:11.777Z,19.45
2023-03-31T11:41:16.557Z,19.64
2023-03-31T11:44:21.085Z,19.61
2023-03-31T11:47:26.992Z,19.31
2023-03-31T11:50:33.202Z,19.47
2023-03-31T11:53:38.768Z,19.62
2023-03-31T11:56:41.539Z,19.77
2023-03-31T11:59:47.958Z,19.27
2023-03-31T12:03:13.530Z,19.12
2023-03-31T12:06:19.530Z,19.51
2023-03-31T12:09:51.460Z,19.56
2023-03-31T12:13:01.227Z,19.43
2023-03-31T12:16:12.950Z,19.58
2023-03-31T12:19:27.696Z,19.19
2023-03-31T12:22:44.381Z,19.45
2023-03-31T12:26:03.987Z,19.94
2023-03-31T12:29:39.565Z,19.92
2023-03-31T12:32:49.163Z,19.67
2023-03-31T12:35:50.961Z,19.43
2023-03-31T12:39:01.507Z,20.04
2023-03-31T12:42:40.933Z,20.09
2023-03-31T12:46:18.080Z,19.92
2023-03-31T12:49:37.949Z,20.42
2023-03-31T12:52:56.746Z,20.60
2023-03-31T12:55:59.468Z,20.07
2023-03-31T12:59:18.855Z,21.13
2023-03-31T13:02:26.408Z,20.89
2023-03-31T13:05:40.549Z,20.44
2023-03-31T13:08:57.169Z,20.60
2023-03-31T13:12:06.374Z,20.77
2023-03-31T13:15:14.448Z,22.09
2023-03-31T13:18:20.976Z,24.22
2023-03-31T13:21:23.886Z,27.61
2023-03-31T13:24:27.620Z,29.31
2023-03-31T13:27:49.926Z,28.59
2023-03-31T13:30:56.801Z,29.47
2023-03-31T13:34:01.696Z,28.30
2023-03-31T13:37:12.758Z,30.15
2023-03-31T13:40:17.097Z,29.05
2023-03-31T13:43:43.821Z,29.78
2023-03-31T13:47:19.853Z,31.13
2023-03-31T13:50:46.042Z,30.57
2023-03-31T13:53:54.540Z,28.54
2023-03-31T13:57:27.444Z,28.93
2023-03-31T14:01:07.546Z,26.50
2023-03-31T14:04:15.543Z,22.88
2023-03-31T14:07:22.899Z,21.65
2023-03-31T14:10:34.215Z,20.91
2023-03-31T14:13:36.019Z,19.81
2023-03-31T14:16:52.480Z,20.09
2023-03-31T14:20:07.999Z,19.85
2023-03-31T14:23:28.665Z,19.62
2023-03-31T14:26:48.939Z,20.13
2023-03-31T14:30:01.759Z,19.16
2023-03-31T14:33:15.307Z,19.14
2023-03-31T14:36:29.988Z,18.77
2023-03-31T14:39:50.347Z,18.53
2023-03-31T14:42:52.568Z,18.92
2023-03-31T14:46:05.665Z,19.18
2023-03-31T14:49:19.926Z,18.87
2023-03-31T14:52:25.269Z,18.83
2023-03-31T14:55:44.170Z,18.64
2023-03-31T14:58:53.505Z,18.40
2023-03-31T15:01:58.278Z,18.59
2023-03-31T15:05:04.450Z,18.90
2023-03-31T15:08:15.736Z,19.76
2023-03-31T15:11:19.685Z,21.47
2023-03-31T15:14:21.706Z,20.50
2023-03-31T15:17:28.012Z,19.80
2023-03-31T15:20:35.496Z,19.15
2023-03-31T15:23:40.662Z,18.13
2023-03-31T15:27:09.590Z,18.41
2023-03-31T15:30:23.619Z,18.53
2023-03-31T15:33:33.306Z,18.34
2023-03-31T15:36:34.975Z,17.97
2023-03-31T15:39:38.466Z,18.18
2023-03-31T15:42:41.203Z,18.11
2023-03-31T15:45:56.287Z,18.28
2023-03-31T15:48:58.100Z,18.35
2023-03-31T15:52:01.381Z,18.03
2023-03-31T15:55:39.258Z,17.73
2023-03-31T15:59:02.961Z,17.51
2023-03-31T16:02:05.938Z,17.56
2023-03-31T16:08:30.619Z,17.38
2023-03-31T16:11:42.074Z,17.28
2023-03-31T16:15:10.359Z,17.10
2023-03-31T16:18:16.963Z,17.07
2023-03-31T16:21:28.220Z,16.88
2023-03-31T16:24:35.049Z,16.88
2023-03-31T16:27:54.029Z,16.70
2023-03-31T16:30:55.919Z,16.61
2023-03-31T16:33:57.872Z,16.36
2023-03-31T16:37:00.184Z,16.29
2023-03-31T16:40:02.163Z,16.27
2023-03-31T16:43:31.066Z,16.11
2023-03-31T16:46:33.250Z,16.10
2023-03-31T16:49:35.024Z,16.03
2023-03-31T16:52:37.175Z,16.08
2023-03-31T16:55:39.286Z,15.90
2023-03-31T16:58:42.638Z,15.73
2023-03-31T17:01:45.881Z,15.61
2023-03-31T17:04:47.998Z,15.44
2023-03-31T17:07:50.202Z,15.30
2023-03-31T17:10:56.660Z,15.11
2023-03-31T17:14:00.584Z,15.17
2023-03-31T17:17:02.470Z,14.97
2023-03-31T17:20:06.635Z,14.86
2023-03-31T17:23:08.939Z,14.86
2023-03-31T17:26:12.966Z,14.86
2023-03-31T17:29:15.590Z,14.86
2023-03-31T17:32:19.573Z,14.76
2023-03-31T17:35:23.019Z,14.70
2023-03-31T17:38:26.669Z,14.73
2023-03-31T17:41:32.016Z,14.66
2023-03-31T17:44:35.443Z,14.68
2023-03-31T17:47:38.378Z,14.61
2023-03-31T17:50:40.635Z,14.59
2023-03-31T17:53:45.497Z,14.54
2023-03-31T17:56:50.447Z,14.53
2023-03-31T17:59:52.652Z,14.54
2023-03-31T18:02:56.013Z,14.44
2023-03-31T18:06:03.577Z,14.41
2023-03-31T18:09:06.843Z,14.45
2023-03-31T18:12:09.780Z,14.35
2023-03-31T18:15:11.939Z,14.26
2023-03-31T18:18:14.759Z,14.23
2023-03-31T18:21:16.894Z,14.16
2023-03-31T18:24:20.565Z,14.09
2023-03-31T18:27:23.912Z,14.05
2023-03-31T18:30:28.317Z,13.96
2023-03-31T18:33:31.459Z,13.91
2023-03-31T18:36:35.760Z,13.95
2023-03-31T18:39:38.741Z,13.88
2023-03-31T18:42:42.210Z,13.92
2023-03-31T18:45:54.940Z,13.81
2023-03-31T18:48:58.406Z,13.84
2023-03-31T18:52:05.133Z,13.80
2023-03-31T18:55:08.084Z,13.77
2023-03-31T18:58:10.569Z,13.66
2023-03-31T19:01:13.060Z,13.70
2023-03-31T19:04:15.216Z,13.65
2023-03-31T19:07:18.199Z,13.38
2023-03-31T19:10:20.624Z,13.36
2023-03-31T19:13:23.072Z,13.39
2023-03-31T19:16:27.930Z,13.34
2023-03-31T19:19:30.791Z,13.33
2023-03-31T19:22:33.744Z,13.37
2023-03-31T19:25:36.289Z,13.25
2023-03-31T19:28:38.928Z,13.12
2023-03-31T19:31:42.052Z,13.23
2023-03-31T19:34:46.624Z,13.16
2023-03-31T19:37:49.508Z,13.06
2023-03-31T19:40:52.159Z,12.99
2023-03-31T19:43:57.256Z,12.99
2023-03-31T19:46:59.976Z,12.90
2023-03-31T19:50:03.669Z,12.95
2023-03-31T19:53:06.799Z,13.03
2023-03-31T19:56:12.570Z,12.99
2023-03-31T19:59:14.973Z,12.79
2023-03-31T20:02:17.504Z,12.87
2023-03-31T20:05:20.243Z,12.94
2023-03-31T20:08:22.800Z,12.98
2023-03-31T20:11:26.657Z,12.76
2023-03-31T20:14:29.932Z,12.73
2023-03-31T20:17:32.522Z,12.65
2023-03-31T20:20:35.462Z,12.42
2023-03-31T20:23:38.612Z,12.26
2023-03-31T20:26:44.138Z,12.14
2023-03-31T20:29:46.835Z,12.08
2023-03-31T20:32:49.686Z,11.81
2023-03-31T20:36:03.854Z,11.53
2023-03-31T20:39:08.182Z,11.43
2023-03-31T20:42:11.079Z,11.19
2023-03-31T20:45:13.633Z,11.13
2023-03-31T20:48:15.826Z,11.15
2023-03-31T20:51:21.433Z,10.91
2023-03-31T20:54:23.242Z,10.97
2023-03-31T20:57:26.714Z,10.98
2023-03-31T21:00:28.616Z,10.87
2023-03-31T21:03:30.953Z,10.93
2023-03-31T21:06:38.068Z,10.86
2023-03-31T21:09:39.797Z,10.95
2023-03-31T21:12:46.157Z,10.78
2023-03-31T21:15:50.670Z,10.80
2023-03-31T21:18:54.689Z,10.68
2023-03-31T21:21:56.346Z,10.69
2023-03-31T21:24:58.032Z,10.75
2023-03-31T21:27:59.665Z,10.69
2023-03-31T21:31:10.185Z,10.74
2023-03-31T21:34:11.889Z,10.84
2023-03-31T21:37:13.690Z,10.68
2023-03-31T21:40:16.677Z,10.65
2023-03-31T21:43:19.509Z,10.75
2023-03-31T21:46:33.612Z,10.68
2023-03-31T21:49:35.660Z,10.70
2023-03-31T21:52:37.321Z,10.84
2023-03-31T21:55:38.963Z,10.64
2023-03-31T21:58:40.721Z,10.67
2023-03-31T22:01:42.756Z,10.65
2023-03-31T22:04:44.641Z,10.40
2023-03-31T22:07:46.721Z,10.36
2023-03-31T22:10:50.498Z,10.35
2023-03-31T22:13:52.126Z,10.37
2023-03-31T22:16:53.997Z,10.37
2023-03-31T22:19:55.814Z,10.32
2023-03-31T22:22:57.803Z,10.28
2023-03-31T22:25:59.456Z,10.24
2023-03-31T22:29:01.223Z,10.17
2023-03-31T22:32:02.896Z,10.30
2023-03-31T22:35:05.084Z,10.19
2023-03-31T22:38:08.540Z,10.22
2023-03-31T22:41:10.753Z,10.34
2023-03-31T22:44:12.394Z,10.39
2023-03-31T22:47:14.109Z,10.19
2023-03-31T22:50:16.126Z,10.00
2023-03-31T22:53:17.787Z,10.21
2023-03-31T22:56:21.266Z,9.97
2023-03-31T22:59:23.046Z,9.81
2023-03-31T23:02:24.731Z,9.77
2023-03-31T23:05:27.026Z,9.64
2023-03-31T23:08:28.719Z,9.59
2023-03-31T23:11:31.536Z,9.41
2023-03-31T23:14:33.141Z,9.28
2023-03-31T23:17:34.844Z,9.29
2023-03-31T23:20:39.201Z,9.27
2023-03-31T23:23:42.275Z,9.22
2023-03-31T23:26:43.904Z,9.25
2023-03-31T23:29:46.341Z,9.20
2023-03-31T23:32:47.959Z,9.29
2023-03-31T23:35:50.137Z,9.35
2023-03-31T23:38:53.933Z,9.14
2023-03-31T23:41:55.546Z,9.31
2023-03-31T23:44:57.205Z,9.67
2023-03-31T23:47:58.954Z,9.50
2023-03-31T23:51:01.220Z,9.47
2023-03-31T23:54:02.926Z,9.79
2023-03-31T23:57:04.666Z,9.54
